sensor_id;sensor_type;location;lat;lon;timestamp;P1;durP1;ratioP1;P2;durP2;ratioP2
41532;SDS011;27262;-35.248;149.138;2023-08-21T00:01:51;1.98;;;0.50;;
41532;SDS011;27262;-35.248;149.138;2023-08-21T00:04:22;0.75;;;0.50;;
41532;SDS011;27262;-35.248;149.138;2023-08-21T00:06:52;0.40;;;0.40;;
41532;SDS011;27262;-35.248;149.138;2023-08-21T00:09:22;0.70;;;0.40;;
41532;SDS011;27262;-35.248;149.138;2023-08-21T00:11:53;0.40;;;0.40;;
41532;SDS011;27262;-35.248;149.138;2023-08-21T00:14:23;0.60;;;0.55;;
41532;SDS011;27262;-35.248;149.138;2023-08-21T00:16:53;0.75;;;0.30;;
41532;SDS011;27262;-35.248;149.138;2023-08-21T00:19:24;1.00;;;0.30;;
41532;SDS011;27262;-35.248;149.138;2023-08-21T00:21:54;0.40;;;0.40;;
41532;SDS011;27262;-35.248;149.138;2023-08-21T00:24:25;0.65;;;0.50;;
41532;SDS011;27262;-35.248;149.138;2023-08-21T00:26:56;1.05;;;0.70;;
41532;SDS011;27262;-35.248;149.138;2023-08-21T00:29:26;1.48;;;0.75;;
41532;SDS011;27262;-35.248;149.138;2023-08-21T00:31:57;2.17;;;0.50;;
41532;SDS011;27262;-35.248;149.138;2023-08-21T00:34:27;1.15;;;0.57;;
41532;SDS011;27262;-35.248;149.138;2023-08-21T00:36:58;0.45;;;0.40;;
41532;SDS011;27262;-35.248;149.138;2023-08-21T00:39:28;2.25;;;0.40;;
41532;SDS011;27262;-35.248;149.138;2023-08-21T00:41:59;2.60;;;0.50;;
41532;SDS011;27262;-35.248;149.138;2023-08-21T00:44:29;1.10;;;0.70;;
41532;SDS011;27262;-35.248;149.138;2023-08-21T00:46:59;4.63;;;0.52;;
41532;SDS011;27262;-35.248;149.138;2023-08-21T00:49:30;1.33;;;0.50;;
41532;SDS011;27262;-35.248;149.138;2023-08-21T00:52:01;2.30;;;0.52;;
41532;SDS011;27262;-35.248;149.138;2023-08-21T00:54:32;2.15;;;0.50;;
41532;SDS011;27262;-35.248;149.138;2023-08-21T00:57:02;1.70;;;0.52;;
41532;SDS011;27262;-35.248;149.138;2023-08-21T00:59:33;0.50;;;0.40;;
41532;SDS011;27262;-35.248;149.138;2023-08-21T01:02:04;1.38;;;0.50;;
41532;SDS011;27262;-35.248;149.138;2023-08-21T01:04:34;0.93;;;0.38;;
41532;SDS011;27262;-35.248;149.138;2023-08-21T01:07:05;1.80;;;0.68;;
41532;SDS011;27262;-35.248;149.138;2023-08-21T01:09:46;0.70;;;0.45;;
41532;SDS011;27262;-35.248;149.138;2023-08-21T01:15:34;1.15;;;0.60;;
41532;SDS011;27262;-35.248;149.138;2023-08-21T01:18:06;0.80;;;0.40;;
41532;SDS011;27262;-35.248;149.138;2023-08-21T01:20:37;0.80;;;0.50;;
41532;SDS011;27262;-35.248;149.138;2023-08-21T01:23:09;0.98;;;0.40;;
41532;SDS011;27262;-35.248;149.138;2023-08-21T01:25:39;1.08;;;0.40;;
41532;SDS011;27262;-35.248;149.138;2023-08-21T01:28:10;1.67;;;0.50;;
41532;SDS011;27262;-35.248;149.138;2023-08-21T01:30:43;0.68;;;0.55;;
41532;SDS011;27262;-35.248;149.138;2023-08-21T01:33:15;0.95;;;0.43;;
41532;SDS011;27262;-35.248;149.138;2023-08-21T01:35:46;0.65;;;0.50;;
41532;SDS011;27262;-35.248;149.138;2023-08-21T01:38:27;0.45;;;0.45;;
41532;SDS011;27262;-35.248;149.138;2023-08-21T01:40:59;0.40;;;0.40;;
41532;SDS011;27262;-35.248;149.138;2023-08-21T01:43:29;1.45;;;0.52;;
41532;SDS011;27262;-35.248;149.138;2023-08-21T01:46:00;1.20;;;0.68;;
41532;SDS011;27262;-35.248;149.138;2023-08-21T01:48:32;0.77;;;0.40;;
41532;SDS011;27262;-35.248;149.138;2023-08-21T01:51:02;0.45;;;0.45;;
41532;SDS011;27262;-35.248;149.138;2023-08-21T01:53:33;3.55;;;0.70;;
41532;SDS011;27262;-35.248;149.138;2023-08-21T01:56:03;0.95;;;0.50;;
41532;SDS011;27262;-35.248;149.138;2023-08-21T01:58:34;6.07;;;0.93;;
41532;SDS011;27262;-35.248;149.138;2023-08-21T02:01:04;2.53;;;0.50;;
41532;SDS011;27262;-35.248;149.138;2023-08-21T02:03:34;0.40;;;0.40;;
41532;SDS011;27262;-35.248;149.138;2023-08-21T02:06:05;2.45;;;0.40;;
41532;SDS011;27262;-35.248;149.138;2023-08-21T02:08:35;0.40;;;0.30;;
41532;SDS011;27262;-35.248;149.138;2023-08-21T02:11:06;2.17;;;0.30;;
41532;SDS011;27262;-35.248;149.138;2023-08-21T02:13:36;2.00;;;0.30;;
41532;SDS011;27262;-35.248;149.138;2023-08-21T02:16:07;1.80;;;0.50;;
41532;SDS011;27262;-35.248;149.138;2023-08-21T02:18:37;0.90;;;0.40;;
41532;SDS011;27262;-35.248;149.138;2023-08-21T02:21:08;0.40;;;0.40;;
41532;SDS011;27262;-35.248;149.138;2023-08-21T02:23:38;0.50;;;0.40;;
41532;SDS011;27262;-35.248;149.138;2023-08-21T02:26:09;1.02;;;0.40;;
41532;SDS011;27262;-35.248;149.138;2023-08-21T02:28:39;1.95;;;0.60;;
41532;SDS011;27262;-35.248;149.138;2023-08-21T02:31:12;1.15;;;0.40;;
41532;SDS011;27262;-35.248;149.138;2023-08-21T02:33:42;0.30;;;0.30;;
41532;SDS011;27262;-35.248;149.138;2023-08-21T02:36:12;2.15;;;0.45;;
41532;SDS011;27262;-35.248;149.138;2023-08-21T02:38:43;0.30;;;0.30;;
41532;SDS011;27262;-35.248;149.138;2023-08-21T02:41:13;1.10;;;0.50;;
41532;SDS011;27262;-35.248;149.138;2023-08-21T02:43:44;1.05;;;0.50;;
41532;SDS011;27262;-35.248;149.138;2023-08-21T02:46:14;0.40;;;0.40;;
41532;SDS011;27262;-35.248;149.138;2023-08-21T02:48:46;0.43;;;0.30;;
41532;SDS011;27262;-35.248;149.138;2023-08-21T02:51:16;1.38;;;0.40;;
41532;SDS011;27262;-35.248;149.138;2023-08-21T02:53:46;0.65;;;0.40;;
41532;SDS011;27262;-35.248;149.138;2023-08-21T02:56:17;0.45;;;0.30;;
41532;SDS011;27262;-35.248;149.138;2023-08-21T02:58:48;0.43;;;0.43;;
41532;SDS011;27262;-35.248;149.138;2023-08-21T03:01:18;0.68;;;0.40;;
41532;SDS011;27262;-35.248;149.138;2023-08-21T03:03:49;1.58;;;0.30;;
41532;SDS011;27262;-35.248;149.138;2023-08-21T03:06:19;1.08;;;0.35;;
41532;SDS011;27262;-35.248;149.138;2023-08-21T03:08:49;0.80;;;0.40;;
41532;SDS011;27262;-35.248;149.138;2023-08-21T03:11:20;0.30;;;0.30;;
41532;SDS011;27262;-35.248;149.138;2023-08-21T03:13:50;0.88;;;0.60;;
41532;SDS011;27262;-35.248;149.138;2023-08-21T03:16:20;0.57;;;0.30;;
41532;SDS011;27262;-35.248;149.138;2023-08-21T03:18:55;1.95;;;0.30;;
41532;SDS011;27262;-35.248;149.138;2023-08-21T03:21:27;0.22;;;0.22;;
41532;SDS011;27262;-35.248;149.138;2023-08-21T03:23:58;0.55;;;0.25;;
41532;SDS011;27262;-35.248;149.138;2023-08-21T03:26:31;0.63;;;0.38;;
41532;SDS011;27262;-35.248;149.138;2023-08-21T03:29:01;0.40;;;0.30;;
41532;SDS011;27262;-35.248;149.138;2023-08-21T03:31:32;1.30;;;0.38;;
41532;SDS011;27262;-35.248;149.138;2023-08-21T03:34:02;0.95;;;0.45;;
41532;SDS011;27262;-35.248;149.138;2023-08-21T03:36:32;2.38;;;0.40;;
41532;SDS011;27262;-35.248;149.138;2023-08-21T03:39:05;3.00;;;0.40;;
41532;SDS011;27262;-35.248;149.138;2023-08-21T03:41:35;1.65;;;0.40;;
41532;SDS011;27262;-35.248;149.138;2023-08-21T03:44:06;1.05;;;0.43;;
41532;SDS011;27262;-35.248;149.138;2023-08-21T03:46:37;1.85;;;0.35;;
41532;SDS011;27262;-35.248;149.138;2023-08-21T03:49:07;0.30;;;0.30;;
41532;SDS011;27262;-35.248;149.138;2023-08-21T03:51:38;3.60;;;0.60;;
41532;SDS011;27262;-35.248;149.138;2023-08-21T03:54:08;1.42;;;0.30;;
41532;SDS011;27262;-35.248;149.138;2023-08-21T03:56:40;0.32;;;0.32;;
41532;SDS011;27262;-35.248;149.138;2023-08-21T03:59:10;1.10;;;0.30;;
41532;SDS011;27262;-35.248;149.138;2023-08-21T04:01:40;1.90;;;0.43;;
41532;SDS011;27262;-35.248;149.138;2023-08-21T04:04:11;3.40;;;0.60;;
41532;SDS011;27262;-35.248;149.138;2023-08-21T04:06:42;0.68;;;0.40;;
41532;SDS011;27262;-35.248;149.138;2023-08-21T04:09:13;0.43;;;0.43;;
41532;SDS011;27262;-35.248;149.138;2023-08-21T04:11:43;1.90;;;0.40;;
41532;SDS011;27262;-35.248;149.138;2023-08-21T04:14:14;1.67;;;0.50;;
41532;SDS011;27262;-35.248;149.138;2023-08-21T04:16:44;2.08;;;0.50;;
41532;SDS011;27262;-35.248;149.138;2023-08-21T04:19:14;1.65;;;0.40;;
41532;SDS011;27262;-35.248;149.138;2023-08-21T04:21:45;0.45;;;0.28;;
41532;SDS011;27262;-35.248;149.138;2023-08-21T04:24:15;0.40;;;0.40;;
41532;SDS011;27262;-35.248;149.138;2023-08-21T04:26:45;2.92;;;0.30;;
41532;SDS011;27262;-35.248;149.138;2023-08-21T04:29:15;1.13;;;0.40;;
41532;SDS011;27262;-35.248;149.138;2023-08-21T04:31:46;1.33;;;0.50;;
41532;SDS011;27262;-35.248;149.138;2023-08-21T04:34:16;1.25;;;0.40;;
41532;SDS011;27262;-35.248;149.138;2023-08-21T04:36:46;1.67;;;0.40;;
41532;SDS011;27262;-35.248;149.138;2023-08-21T04:39:17;4.05;;;0.40;;
41532;SDS011;27262;-35.248;149.138;2023-08-21T04:41:48;0.60;;;0.32;;
41532;SDS011;27262;-35.248;149.138;2023-08-21T04:44:18;0.28;;;0.20;;
41532;SDS011;27262;-35.248;149.138;2023-08-21T04:46:48;3.60;;;0.50;;
41532;SDS011;27262;-35.248;149.138;2023-08-21T04:49:19;2.88;;;0.40;;
41532;SDS011;27262;-35.248;149.138;2023-08-21T04:51:49;1.63;;;0.30;;
41532;SDS011;27262;-35.248;149.138;2023-08-21T04:54:19;0.30;;;0.30;;
41532;SDS011;27262;-35.248;149.138;2023-08-21T04:56:50;1.58;;;0.50;;
41532;SDS011;27262;-35.248;149.138;2023-08-21T04:59:20;0.30;;;0.30;;
41532;SDS011;27262;-35.248;149.138;2023-08-21T05:01:50;2.78;;;0.40;;
41532;SDS011;27262;-35.248;149.138;2023-08-21T05:04:21;1.20;;;0.30;;
41532;SDS011;27262;-35.248;149.138;2023-08-21T05:06:51;2.42;;;0.32;;
41532;SDS011;27262;-35.248;149.138;2023-08-21T05:09:22;1.17;;;0.50;;
41532;SDS011;27262;-35.248;149.138;2023-08-21T05:11:52;1.92;;;0.40;;
41532;SDS011;27262;-35.248;149.138;2023-08-21T05:14:23;1.33;;;0.30;;
41532;SDS011;27262;-35.248;149.138;2023-08-21T05:16:53;0.32;;;0.30;;
41532;SDS011;27262;-35.248;149.138;2023-08-21T05:19:23;1.17;;;0.50;;
41532;SDS011;27262;-35.248;149.138;2023-08-21T05:21:55;0.30;;;0.28;;
41532;SDS011;27262;-35.248;149.138;2023-08-21T05:24:25;0.77;;;0.40;;
41532;SDS011;27262;-35.248;149.138;2023-08-21T05:26:55;2.25;;;0.50;;
41532;SDS011;27262;-35.248;149.138;2023-08-21T05:29:27;0.63;;;0.50;;
41532;SDS011;27262;-35.248;149.138;2023-08-21T05:31:57;0.30;;;0.30;;
41532;SDS011;27262;-35.248;149.138;2023-08-21T05:34:28;0.40;;;0.40;;
41532;SDS011;27262;-35.248;149.138;2023-08-21T05:36:58;0.40;;;0.40;;
41532;SDS011;27262;-35.248;149.138;2023-08-21T05:39:29;1.02;;;0.45;;
41532;SDS011;27262;-35.248;149.138;2023-08-21T05:41:59;0.30;;;0.30;;
41532;SDS011;27262;-35.248;149.138;2023-08-21T05:44:30;0.52;;;0.30;;
41532;SDS011;27262;-35.248;149.138;2023-08-21T05:47:00;0.30;;;0.30;;
41532;SDS011;27262;-35.248;149.138;2023-08-21T05:49:31;1.38;;;0.30;;
41532;SDS011;27262;-35.248;149.138;2023-08-21T05:52:01;0.60;;;0.40;;
41532;SDS011;27262;-35.248;149.138;2023-08-21T05:54:31;0.80;;;0.40;;
41532;SDS011;27262;-35.248;149.138;2023-08-21T05:57:02;0.75;;;0.30;;
41532;SDS011;27262;-35.248;149.138;2023-08-21T05:59:32;0.95;;;0.32;;
41532;SDS011;27262;-35.248;149.138;2023-08-21T06:02:03;1.65;;;0.30;;
41532;SDS011;27262;-35.248;149.138;2023-08-21T06:04:33;2.20;;;0.50;;
41532;SDS011;27262;-35.248;149.138;2023-08-21T06:07:03;2.08;;;0.30;;
41532;SDS011;27262;-35.248;149.138;2023-08-21T06:09:34;2.58;;;0.50;;
41532;SDS011;27262;-35.248;149.138;2023-08-21T06:12:08;0.52;;;0.40;;
41532;SDS011;27262;-35.248;149.138;2023-08-21T06:14:38;1.38;;;0.30;;
41532;SDS011;27262;-35.248;149.138;2023-08-21T06:17:08;1.60;;;0.35;;
41532;SDS011;27262;-35.248;149.138;2023-08-21T06:19:39;0.52;;;0.20;;
41532;SDS011;27262;-35.248;149.138;2023-08-21T06:22:09;0.70;;;0.40;;
41532;SDS011;27262;-35.248;149.138;2023-08-21T06:24:40;0.20;;;0.20;;
41532;SDS011;27262;-35.248;149.138;2023-08-21T06:27:10;0.35;;;0.30;;
41532;SDS011;27262;-35.248;149.138;2023-08-21T06:29:40;0.68;;;0.40;;
41532;SDS011;27262;-35.248;149.138;2023-08-21T06:32:11;0.32;;;0.30;;
41532;SDS011;27262;-35.248;149.138;2023-08-21T06:34:41;0.40;;;0.30;;
41532;SDS011;27262;-35.248;149.138;2023-08-21T06:37:11;0.30;;;0.22;;
41532;SDS011;27262;-35.248;149.138;2023-08-21T06:39:42;0.63;;;0.30;;
41532;SDS011;27262;-35.248;149.138;2023-08-21T06:42:12;0.85;;;0.40;;
41532;SDS011;27262;-35.248;149.138;2023-08-21T06:44:43;0.57;;;0.30;;
41532;SDS011;27262;-35.248;149.138;2023-08-21T06:47:13;0.75;;;0.30;;
41532;SDS011;27262;-35.248;149.138;2023-08-21T06:49:44;0.47;;;0.30;;
41532;SDS011;27262;-35.248;149.138;2023-08-21T06:52:14;0.98;;;0.40;;
41532;SDS011;27262;-35.248;149.138;2023-08-21T06:54:44;0.30;;;0.30;;
41532;SDS011;27262;-35.248;149.138;2023-08-21T06:57:14;3.33;;;0.40;;
41532;SDS011;27262;-35.248;149.138;2023-08-21T06:59:45;1.00;;;0.40;;
41532;SDS011;27262;-35.248;149.138;2023-08-21T07:02:15;0.88;;;0.35;;
41532;SDS011;27262;-35.248;149.138;2023-08-21T07:04:46;1.05;;;0.40;;
41532;SDS011;27262;-35.248;149.138;2023-08-21T07:07:16;0.80;;;0.35;;
41532;SDS011;27262;-35.248;149.138;2023-08-21T07:09:46;1.75;;;0.30;;
41532;SDS011;27262;-35.248;149.138;2023-08-21T07:12:19;0.80;;;0.35;;
41532;SDS011;27262;-35.248;149.138;2023-08-21T07:14:51;0.82;;;0.30;;
41532;SDS011;27262;-35.248;149.138;2023-08-21T07:17:21;0.40;;;0.38;;
41532;SDS011;27262;-35.248;149.138;2023-08-21T07:19:51;0.63;;;0.40;;
41532;SDS011;27262;-35.248;149.138;2023-08-21T07:22:21;0.52;;;0.40;;
41532;SDS011;27262;-35.248;149.138;2023-08-21T07:24:52;0.30;;;0.30;;
41532;SDS011;27262;-35.248;149.138;2023-08-21T07:27:22;0.40;;;0.40;;
41532;SDS011;27262;-35.248;149.138;2023-08-21T07:29:53;0.47;;;0.38;;
41532;SDS011;27262;-35.248;149.138;2023-08-21T07:32:23;0.45;;;0.30;;
41532;SDS011;27262;-35.248;149.138;2023-08-21T07:34:54;1.42;;;0.30;;
41532;SDS011;27262;-35.248;149.138;2023-08-21T07:37:24;0.30;;;0.30;;
41532;SDS011;27262;-35.248;149.138;2023-08-21T07:39:56;0.65;;;0.30;;
41532;SDS011;27262;-35.248;149.138;2023-08-21T07:42:27;0.35;;;0.30;;
41532;SDS011;27262;-35.248;149.138;2023-08-21T07:44:57;0.40;;;0.38;;
41532;SDS011;27262;-35.248;149.138;2023-08-21T07:47:28;1.92;;;0.40;;
41532;SDS011;27262;-35.248;149.138;2023-08-21T07:50:00;2.75;;;0.30;;
41532;SDS011;27262;-35.248;149.138;2023-08-21T07:52:30;0.30;;;0.30;;
41532;SDS011;27262;-35.248;149.138;2023-08-21T07:55:01;5.47;;;0.75;;
41532;SDS011;27262;-35.248;149.138;2023-08-21T07:57:32;0.82;;;0.43;;
41532;SDS011;27262;-35.248;149.138;2023-08-21T08:00:02;1.15;;;0.50;;
41532;SDS011;27262;-35.248;149.138;2023-08-21T08:02:37;2.70;;;0.47;;
41532;SDS011;27262;-35.248;149.138;2023-08-21T08:05:07;1.77;;;0.40;;
41532;SDS011;27262;-35.248;149.138;2023-08-21T08:07:38;2.53;;;0.40;;
41532;SDS011;27262;-35.248;149.138;2023-08-21T08:10:08;0.40;;;0.40;;
41532;SDS011;27262;-35.248;149.138;2023-08-21T08:12:41;1.60;;;0.30;;
41532;SDS011;27262;-35.248;149.138;2023-08-21T08:15:12;1.90;;;0.35;;
41532;SDS011;27262;-35.248;149.138;2023-08-21T08:17:43;2.80;;;0.40;;
41532;SDS011;27262;-35.248;149.138;2023-08-21T08:20:20;1.73;;;0.60;;
41532;SDS011;27262;-35.248;149.138;2023-08-21T08:22:51;2.20;;;0.57;;
41532;SDS011;27262;-35.248;149.138;2023-08-21T08:25:22;1.77;;;0.28;;
41532;SDS011;27262;-35.248;149.138;2023-08-21T08:27:53;1.20;;;0.50;;
41532;SDS011;27262;-35.248;149.138;2023-08-21T08:30:23;4.93;;;0.43;;
41532;SDS011;27262;-35.248;149.138;2023-08-21T08:32:53;1.88;;;0.30;;
41532;SDS011;27262;-35.248;149.138;2023-08-21T08:35:24;0.93;;;0.40;;
41532;SDS011;27262;-35.248;149.138;2023-08-21T08:37:54;1.10;;;0.30;;
41532;SDS011;27262;-35.248;149.138;2023-08-21T08:40:24;0.73;;;0.40;;
41532;SDS011;27262;-35.248;149.138;2023-08-21T08:42:55;0.63;;;0.30;;
41532;SDS011;27262;-35.248;149.138;2023-08-21T08:45:29;2.53;;;0.30;;
41532;SDS011;27262;-35.248;149.138;2023-08-21T08:48:00;1.23;;;0.30;;
41532;SDS011;27262;-35.248;149.138;2023-08-21T08:50:31;0.55;;;0.17;;
41532;SDS011;27262;-35.248;149.138;2023-08-21T08:53:03;5.72;;;0.40;;
41532;SDS011;27262;-35.248;149.138;2023-08-21T08:55:43;0.63;;;0.30;;
41532;SDS011;27262;-35.248;149.138;2023-08-21T08:58:14;0.98;;;0.30;;
41532;SDS011;27262;-35.248;149.138;2023-08-21T09:00:45;0.75;;;0.38;;
41532;SDS011;27262;-35.248;149.138;2023-08-21T09:03:15;5.55;;;0.38;;
41532;SDS011;27262;-35.248;149.138;2023-08-21T09:05:46;3.65;;;0.40;;
41532;SDS011;27262;-35.248;149.138;2023-08-21T09:08:21;1.27;;;0.68;;
41532;SDS011;27262;-35.248;149.138;2023-08-21T09:10:56;1.35;;;0.70;;
41532;SDS011;27262;-35.248;149.138;2023-08-21T09:13:34;1.75;;;0.80;;
41532;SDS011;27262;-35.248;149.138;2023-08-21T09:16:04;0.88;;;0.70;;
41532;SDS011;27262;-35.248;149.138;2023-08-21T09:18:35;0.80;;;0.60;;
41532;SDS011;27262;-35.248;149.138;2023-08-21T09:21:07;2.30;;;0.90;;
41532;SDS011;27262;-35.248;149.138;2023-08-21T09:23:37;0.60;;;0.50;;
41532;SDS011;27262;-35.248;149.138;2023-08-21T09:26:08;2.40;;;0.75;;
41532;SDS011;27262;-35.248;149.138;2023-08-21T09:28:38;1.42;;;1.10;;
41532;SDS011;27262;-35.248;149.138;2023-08-21T09:31:10;1.63;;;0.60;;
41532;SDS011;27262;-35.248;149.138;2023-08-21T09:33:41;2.35;;;0.90;;
41532;SDS011;27262;-35.248;149.138;2023-08-21T09:36:12;1.10;;;0.70;;
41532;SDS011;27262;-35.248;149.138;2023-08-21T09:38:45;2.72;;;1.00;;
41532;SDS011;27262;-35.248;149.138;2023-08-21T09:41:19;0.73;;;0.60;;
41532;SDS011;27262;-35.248;149.138;2023-08-21T09:43:50;0.85;;;0.70;;
41532;SDS011;27262;-35.248;149.138;2023-08-21T09:46:24;1.25;;;0.73;;
41532;SDS011;27262;-35.248;149.138;2023-08-21T09:48:55;0.55;;;0.50;;
41532;SDS011;27262;-35.248;149.138;2023-08-21T09:51:26;0.98;;;0.82;;
41532;SDS011;27262;-35.248;149.138;2023-08-21T09:53:56;0.93;;;0.73;;
41532;SDS011;27262;-35.248;149.138;2023-08-21T09:56:27;0.60;;;0.60;;
41532;SDS011;27262;-35.248;149.138;2023-08-21T09:58:58;1.60;;;0.88;;
41532;SDS011;27262;-35.248;149.138;2023-08-21T10:01:28;1.08;;;0.95;;
41532;SDS011;27262;-35.248;149.138;2023-08-21T10:04:02;1.05;;;0.73;;
41532;SDS011;27262;-35.248;149.138;2023-08-21T10:06:34;0.82;;;0.60;;
41532;SDS011;27262;-35.248;149.138;2023-08-21T10:09:05;0.98;;;0.68;;
41532;SDS011;27262;-35.248;149.138;2023-08-21T10:11:37;0.93;;;0.82;;
41532;SDS011;27262;-35.248;149.138;2023-08-21T10:14:09;1.58;;;0.70;;
41532;SDS011;27262;-35.248;149.138;2023-08-21T10:16:40;1.20;;;0.90;;
41532;SDS011;27262;-35.248;149.138;2023-08-21T10:19:13;1.08;;;0.80;;
41532;SDS011;27262;-35.248;149.138;2023-08-21T10:21:47;0.73;;;0.57;;
41532;SDS011;27262;-35.248;149.138;2023-08-21T10:24:27;2.22;;;0.70;;
41532;SDS011;27262;-35.248;149.138;2023-08-21T10:27:03;0.82;;;0.60;;
41532;SDS011;27262;-35.248;149.138;2023-08-21T10:29:35;0.70;;;0.70;;
41532;SDS011;27262;-35.248;149.138;2023-08-21T10:32:07;0.70;;;0.60;;
41532;SDS011;27262;-35.248;149.138;2023-08-21T10:34:38;0.88;;;0.68;;
41532;SDS011;27262;-35.248;149.138;2023-08-21T10:37:20;0.80;;;0.60;;
41532;SDS011;27262;-35.248;149.138;2023-08-21T10:39:56;1.15;;;0.70;;
41532;SDS011;27262;-35.248;149.138;2023-08-21T10:42:48;0.75;;;0.60;;
41532;SDS011;27262;-35.248;149.138;2023-08-21T10:45:18;0.75;;;0.75;;
41532;SDS011;27262;-35.248;149.138;2023-08-21T10:47:48;1.13;;;0.70;;
41532;SDS011;27262;-35.248;149.138;2023-08-21T10:50:19;0.90;;;0.63;;
41532;SDS011;27262;-35.248;149.138;2023-08-21T10:52:51;0.82;;;0.82;;
41532;SDS011;27262;-35.248;149.138;2023-08-21T10:55:22;1.42;;;0.70;;
41532;SDS011;27262;-35.248;149.138;2023-08-21T10:57:52;1.08;;;0.70;;
41532;SDS011;27262;-35.248;149.138;2023-08-21T11:00:23;2.78;;;0.90;;
41532;SDS011;27262;-35.248;149.138;2023-08-21T11:02:54;1.52;;;0.90;;
41532;SDS011;27262;-35.248;149.138;2023-08-21T11:05:25;1.65;;;0.90;;
41532;SDS011;27262;-35.248;149.138;2023-08-21T11:07:55;4.53;;;1.10;;
41532;SDS011;27262;-35.248;149.138;2023-08-21T11:10:28;5.15;;;0.95;;
41532;SDS011;27262;-35.248;149.138;2023-08-21T11:13:00;5.47;;;0.90;;
41532;SDS011;27262;-35.248;149.138;2023-08-21T11:15:31;7.90;;;1.15;;
41532;SDS011;27262;-35.248;149.138;2023-08-21T11:18:01;5.75;;;0.90;;
41532;SDS011;27262;-35.248;149.138;2023-08-21T11:20:33;7.75;;;1.30;;
41532;SDS011;27262;-35.248;149.138;2023-08-21T11:23:05;3.90;;;1.10;;
41532;SDS011;27262;-35.248;149.138;2023-08-21T11:25:39;9.02;;;0.82;;
41532;SDS011;27262;-35.248;149.138;2023-08-21T11:28:10;1.45;;;0.60;;
41532;SDS011;27262;-35.248;149.138;2023-08-21T11:30:40;1.10;;;0.95;;
41532;SDS011;27262;-35.248;149.138;2023-08-21T11:33:12;6.82;;;1.00;;
41532;SDS011;27262;-35.248;149.138;2023-08-21T11:35:43;6.45;;;1.10;;
41532;SDS011;27262;-35.248;149.138;2023-08-21T11:38:16;3.72;;;1.00;;
41532;SDS011;27262;-35.248;149.138;2023-08-21T11:40:55;2.40;;;1.05;;
41532;SDS011;27262;-35.248;149.138;2023-08-21T11:46:08;1.25;;;0.93;;
41532;SDS011;27262;-35.248;149.138;2023-08-21T11:48:40;1.40;;;0.82;;
41532;SDS011;27262;-35.248;149.138;2023-08-21T11:51:10;1.70;;;1.00;;
41532;SDS011;27262;-35.248;149.138;2023-08-21T11:53:41;1.20;;;0.90;;
41532;SDS011;27262;-35.248;149.138;2023-08-21T11:56:15;3.17;;;0.80;;
41532;SDS011;27262;-35.248;149.138;2023-08-21T11:58:50;4.70;;;0.98;;
41532;SDS011;27262;-35.248;149.138;2023-08-21T12:01:20;4.35;;;1.20;;
41532;SDS011;27262;-35.248;149.138;2023-08-21T12:03:51;1.25;;;0.90;;
41532;SDS011;27262;-35.248;149.138;2023-08-21T12:06:25;1.08;;;0.90;;
41532;SDS011;27262;-35.248;149.138;2023-08-21T12:09:00;1.00;;;0.77;;
41532;SDS011;27262;-35.248;149.138;2023-08-21T12:11:33;1.83;;;0.90;;
41532;SDS011;27262;-35.248;149.138;2023-08-21T12:14:04;1.17;;;1.08;;
41532;SDS011;27262;-35.248;149.138;2023-08-21T12:16:34;1.08;;;0.80;;
41532;SDS011;27262;-35.248;149.138;2023-08-21T12:19:05;3.53;;;0.93;;
41532;SDS011;27262;-35.248;149.138;2023-08-21T12:21:37;1.77;;;0.80;;
41532;SDS011;27262;-35.248;149.138;2023-08-21T12:24:08;2.83;;;1.23;;
41532;SDS011;27262;-35.248;149.138;2023-08-21T12:26:38;2.80;;;0.80;;
41532;SDS011;27262;-35.248;149.138;2023-08-21T12:29:16;1.95;;;1.10;;
41532;SDS011;27262;-35.248;149.138;2023-08-21T12:31:47;2.80;;;0.95;;
41532;SDS011;27262;-35.248;149.138;2023-08-21T12:34:17;1.10;;;0.80;;
41532;SDS011;27262;-35.248;149.138;2023-08-21T12:36:49;2.25;;;0.80;;
41532;SDS011;27262;-35.248;149.138;2023-08-21T12:39:20;0.80;;;0.75;;
41532;SDS011;27262;-35.248;149.138;2023-08-21T12:41:50;1.10;;;1.00;;
41532;SDS011;27262;-35.248;149.138;2023-08-21T12:44:21;1.35;;;0.68;;
41532;SDS011;27262;-35.248;149.138;2023-08-21T12:46:51;1.10;;;0.90;;
41532;SDS011;27262;-35.248;149.138;2023-08-21T12:49:22;0.73;;;0.68;;
41532;SDS011;27262;-35.248;149.138;2023-08-21T12:51:52;0.90;;;0.90;;
41532;SDS011;27262;-35.248;149.138;2023-08-21T12:54:24;1.05;;;0.70;;
41532;SDS011;27262;-35.248;149.138;2023-08-21T12:56:54;0.98;;;0.75;;
41532;SDS011;27262;-35.248;149.138;2023-08-21T12:59:25;1.35;;;0.80;;
41532;SDS011;27262;-35.248;149.138;2023-08-21T13:01:55;1.23;;;0.85;;
41532;SDS011;27262;-35.248;149.138;2023-08-21T13:04:29;0.90;;;0.70;;
41532;SDS011;27262;-35.248;149.138;2023-08-21T13:06:59;0.98;;;0.77;;
41532;SDS011;27262;-35.248;149.138;2023-08-21T13:09:31;2.63;;;1.05;;
41532;SDS011;27262;-35.248;149.138;2023-08-21T13:12:02;0.70;;;0.70;;
41532;SDS011;27262;-35.248;149.138;2023-08-21T13:14:32;1.40;;;0.70;;
41532;SDS011;27262;-35.248;149.138;2023-08-21T13:17:03;0.75;;;0.70;;
41532;SDS011;27262;-35.248;149.138;2023-08-21T13:19:33;0.90;;;0.70;;
41532;SDS011;27262;-35.248;149.138;2023-08-21T13:22:04;2.25;;;0.90;;
41532;SDS011;27262;-35.248;149.138;2023-08-21T13:24:34;0.90;;;0.70;;
41532;SDS011;27262;-35.248;149.138;2023-08-21T13:27:04;1.17;;;1.08;;
41532;SDS011;27262;-35.248;149.138;2023-08-21T13:29:34;0.80;;;0.80;;
41532;SDS011;27262;-35.248;149.138;2023-08-21T13:32:05;0.68;;;0.68;;
41532;SDS011;27262;-35.248;149.138;2023-08-21T13:34:36;1.85;;;0.80;;
41532;SDS011;27262;-35.248;149.138;2023-08-21T13:37:06;0.70;;;0.70;;
41532;SDS011;27262;-35.248;149.138;2023-08-21T13:39:36;1.17;;;0.80;;
41532;SDS011;27262;-35.248;149.138;2023-08-21T13:42:06;0.80;;;0.70;;
41532;SDS011;27262;-35.248;149.138;2023-08-21T13:44:37;0.90;;;0.70;;
41532;SDS011;27262;-35.248;149.138;2023-08-21T13:47:07;1.50;;;0.85;;
41532;SDS011;27262;-35.248;149.138;2023-08-21T13:49:37;0.75;;;0.70;;
41532;SDS011;27262;-35.248;149.138;2023-08-21T13:52:08;1.05;;;0.60;;
41532;SDS011;27262;-35.248;149.138;2023-08-21T13:54:38;1.20;;;0.82;;
41532;SDS011;27262;-35.248;149.138;2023-08-21T13:57:08;2.50;;;0.70;;
41532;SDS011;27262;-35.248;149.138;2023-08-21T13:59:39;1.10;;;0.68;;
41532;SDS011;27262;-35.248;149.138;2023-08-21T14:02:09;1.30;;;0.60;;
41532;SDS011;27262;-35.248;149.138;2023-08-21T14:04:39;0.80;;;0.80;;
41532;SDS011;27262;-35.248;149.138;2023-08-21T14:07:10;0.63;;;0.63;;
41532;SDS011;27262;-35.248;149.138;2023-08-21T14:09:40;0.90;;;0.77;;
41532;SDS011;27262;-35.248;149.138;2023-08-21T14:12:11;3.05;;;0.80;;
41532;SDS011;27262;-35.248;149.138;2023-08-21T14:14:41;0.98;;;0.80;;
41532;SDS011;27262;-35.248;149.138;2023-08-21T14:17:11;0.82;;;0.80;;
41532;SDS011;27262;-35.248;149.138;2023-08-21T14:19:42;0.90;;;0.80;;
41532;SDS011;27262;-35.248;149.138;2023-08-21T14:22:12;0.95;;;0.80;;
41532;SDS011;27262;-35.248;149.138;2023-08-21T14:24:42;0.90;;;0.73;;
41532;SDS011;27262;-35.248;149.138;2023-08-21T14:27:12;1.17;;;0.80;;
41532;SDS011;27262;-35.248;149.138;2023-08-21T14:29:43;0.63;;;0.60;;
41532;SDS011;27262;-35.248;149.138;2023-08-21T14:32:13;0.70;;;0.60;;
41532;SDS011;27262;-35.248;149.138;2023-08-21T14:34:44;1.35;;;0.80;;
41532;SDS011;27262;-35.248;149.138;2023-08-21T14:37:15;0.98;;;0.88;;